Terminal Aerodrome Forecast
Issued by NWS Mt. Holly, NJ

Home | Current Version | Previous Version | Text Only | Print | Product List | Glossary On
Versions: 1 2 3 4 5 6 7 8 9 10 11 12 13 14 15 16 17 18 19 20 21
000
FTUS41 KPHI 010152 AAA
TAFILG
TAF AMD
KILG 010152Z 0102/0124 16012KT P6SM BKN050
      TEMPO 0103/0107 4SM TSRA BR BKN050CB
     FM011000 23003KT 4SM BR BKN200
     FM011200 24006KT P6SM SCT050
     FM011500 25010G18KT P6SM SCT050
      TEMPO 0116/0120 BKN050=

USA.gov is the U.S. government's official web portal to all federal, state and local government web resources and services.